createdAt,value
2018-09-04T00:00:57.991Z,74.80
2018-09-04T00:01:57.994Z,75.10
2018-09-04T00:02:58.026Z,75.50
2018-09-04T00:03:58.006Z,70.70
2018-09-04T00:04:58.000Z,70.40
2018-09-04T00:05:58.008Z,71.20
2018-09-04T00:06:58.018Z,72.20
2018-09-04T00:07:58.021Z,70.90
2018-09-04T00:08:58.053Z,67.70
2018-09-04T00:09:58.035Z,68.90
2018-09-04T00:10:58.033Z,67.80
2018-09-04T00:11:58.038Z,67.50
2018-09-04T00:12:58.070Z,68.20
2018-09-04T00:13:58.066Z,67.50
2018-09-04T00:14:58.046Z,67.90
2018-09-04T00:15:58.090Z,65.10
2018-09-04T00:16:58.056Z,63.60
2018-09-04T00:17:58.072Z,62.20
2018-09-04T00:18:58.041Z,64.30
2018-09-04T00:19:58.060Z,68.00
2018-09-04T00:20:58.060Z,67.00
2018-09-04T00:21:58.054Z,66.50
2018-09-04T00:22:58.993Z,66.30
2018-09-04T00:23:58.152Z,68.30
2018-09-04T00:24:58.093Z,71.80
2018-09-04T00:25:58.070Z,72.70
2018-09-04T00:26:58.070Z,71.40
2018-09-04T00:27:58.076Z,73.00
2018-09-04T00:28:58.091Z,73.80
2018-09-04T00:29:58.076Z,72.80
2018-09-04T00:30:58.082Z,71.70
2018-09-04T00:31:58.082Z,67.80
2018-09-04T00:32:58.085Z,67.90
2018-09-04T00:33:58.084Z,68.20
2018-09-04T00:34:58.099Z,69.90
2018-09-04T00:35:58.243Z,68.40
2018-09-04T00:36:58.110Z,67.60
2018-09-04T00:37:58.083Z,66.70
2018-09-04T00:38:58.088Z,67.90
2018-09-04T00:39:58.120Z,68.90
2018-09-04T00:40:58.142Z,69.80
2018-09-04T00:41:58.107Z,68.80
2018-09-04T00:42:58.103Z,70.20
2018-09-04T00:43:58.109Z,68.50
2018-09-04T00:44:58.112Z,68.50
2018-09-04T00:45:58.110Z,71.10
2018-09-04T00:46:58.133Z,70.10
2018-09-04T00:47:58.190Z,73.10
2018-09-04T00:48:58.223Z,74.60
2018-09-04T00:49:58.152Z,74.10
2018-09-04T00:50:58.202Z,73.90
2018-09-04T00:51:58.125Z,75.80
2018-09-04T00:52:58.177Z,74.60
2018-09-04T00:53:58.243Z,74.80
2018-09-04T00:54:58.145Z,76.20
2018-09-04T00:55:58.132Z,78.10
2018-09-04T00:56:58.189Z,77.40
2018-09-04T00:57:58.138Z,75.20
2018-09-04T00:58:58.201Z,76.40
2018-09-04T00:59:58.160Z,75.00
2018-09-04T01:00:58.140Z,77.80
2018-09-04T01:01:58.163Z,75.40
2018-09-04T01:02:58.167Z,76.60
2018-09-04T01:03:58.167Z,77.50
2018-09-04T01:05:00.076Z,77.70
2018-09-04T01:05:58.211Z,77.50
2018-09-04T01:06:58.235Z,79.70
2018-09-04T01:07:58.176Z,78.40
2018-09-04T01:08:58.198Z,81.20
2018-09-04T01:09:58.229Z,82.50
2018-09-04T01:10:58.170Z,81.20
2018-09-04T01:11:58.196Z,79.80
2018-09-04T01:12:58.243Z,80.30
2018-09-04T01:13:58.208Z,79.80
2018-09-04T01:14:58.214Z,79.40
2018-09-04T01:15:58.202Z,82.00
2018-09-04T01:16:59.021Z,79.40
2018-09-04T01:17:58.196Z,80.20
2018-09-04T01:18:58.209Z,81.50
2018-09-04T01:19:58.202Z,79.20
2018-09-04T01:20:58.221Z,80.80
2018-09-04T01:21:58.211Z,81.30
2018-09-04T01:22:58.243Z,80.40
2018-09-04T01:23:58.260Z,80.90
2018-09-04T01:24:58.256Z,78.30
2018-09-04T01:25:58.231Z,77.80
2018-09-04T01:26:58.222Z,81.10
2018-09-04T01:27:58.243Z,82.40
2018-09-04T01:28:58.251Z,81.40
2018-09-04T01:29:58.254Z,80.10
2018-09-04T01:30:58.259Z,79.70
2018-09-04T01:31:58.305Z,78.40
2018-09-04T01:32:58.256Z,79.90
2018-09-04T01:33:58.272Z,77.10
2018-09-04T01:34:58.279Z,77.40
2018-09-04T01:35:58.251Z,76.80
2018-09-04T01:36:58.251Z,75.50
2018-09-04T01:37:58.304Z,79.40
2018-09-04T01:38:58.245Z,76.80
2018-09-04T01:39:58.249Z,78.90
2018-09-04T01:40:58.311Z,78.80
2018-09-04T01:41:58.264Z,76.40
2018-09-04T01:42:58.267Z,72.90
2018-09-04T01:43:58.275Z,74.20
2018-09-04T01:44:58.269Z,72.60
2018-09-04T01:45:58.265Z,72.20
2018-09-04T01:46:58.273Z,72.50
2018-09-04T01:47:58.343Z,73.90
2018-09-04T01:48:58.272Z,70.00
2018-09-04T01:49:58.273Z,72.30
2018-09-04T01:50:58.288Z,72.70
2018-09-04T01:51:58.292Z,74.80
2018-09-04T01:52:58.296Z,72.90
2018-09-04T01:53:58.302Z,71.10
2018-09-04T01:54:58.284Z,72.60
2018-09-04T01:55:58.291Z,72.80
2018-09-04T01:56:58.293Z,72.10
2018-09-04T01:57:58.302Z,70.50
2018-09-04T01:58:58.298Z,72.70
2018-09-04T01:59:58.302Z,69.50
2018-09-04T02:00:58.323Z,70.60
2018-09-04T02:01:58.311Z,71.00
2018-09-04T02:02:58.337Z,73.60
2018-09-04T02:03:58.320Z,73.50
2018-09-04T02:04:58.321Z,75.90
2018-09-04T02:05:58.383Z,76.50
2018-09-04T02:06:58.337Z,73.40
2018-09-04T02:07:58.334Z,70.60
2018-09-04T02:08:58.363Z,75.10
2018-09-04T02:09:58.346Z,72.30
2018-09-04T02:10:58.339Z,74.50
2018-09-04T02:11:58.337Z,75.60
2018-09-04T02:12:58.336Z,79.10
2018-09-04T02:13:58.366Z,75.80
2018-09-04T02:14:58.429Z,78.50
2018-09-04T02:15:58.368Z,74.90
2018-09-04T02:16:58.350Z,75.20
2018-09-04T02:17:58.372Z,75.30
2018-09-04T02:18:58.375Z,77.30
2018-09-04T02:19:58.395Z,74.60
2018-09-04T02:20:58.371Z,73.60
2018-09-04T02:21:58.479Z,76.90
2018-09-04T02:22:58.381Z,73.60
2018-09-04T02:23:59.054Z,73.90
2018-09-04T02:24:58.392Z,72.80
2018-09-04T02:25:58.356Z,75.90
2018-09-04T02:26:58.366Z,73.10
2018-09-04T02:27:58.372Z,73.80
2018-09-04T02:28:58.369Z,74.90
2018-09-04T02:29:58.376Z,71.90
2018-09-04T02:30:58.446Z,71.10
2018-09-04T02:31:58.516Z,71.70
2018-09-04T02:32:58.439Z,73.30
2018-09-04T02:33:58.400Z,73.80
2018-09-04T02:34:58.437Z,74.90
2018-09-04T02:35:58.408Z,73.90
2018-09-04T02:36:58.431Z,76.40
2018-09-04T02:37:58.435Z,74.20
2018-09-04T02:38:58.426Z,72.60
2018-09-04T02:39:58.402Z,75.60
2018-09-04T02:40:58.407Z,74.00
2018-09-04T02:41:58.488Z,73.00
2018-09-04T02:42:58.482Z,70.70
2018-09-04T02:43:58.426Z,71.30
2018-09-04T02:44:58.435Z,73.80
2018-09-04T02:45:58.441Z,73.10
2018-09-04T02:46:58.440Z,70.70
2018-09-04T02:47:58.442Z,72.80
2018-09-04T02:48:58.446Z,69.80
2018-09-04T02:49:58.440Z,70.10
2018-09-04T02:50:58.426Z,70.70
2018-09-04T02:51:58.456Z,70.60
2018-09-04T02:52:58.486Z,74.40
2018-09-04T02:53:58.457Z,70.90
2018-09-04T02:54:58.491Z,70.30
2018-09-04T02:55:58.460Z,71.50
2018-09-04T02:56:58.444Z,74.60
2018-09-04T02:57:58.453Z,74.30
2018-09-04T02:58:58.469Z,75.80
2018-09-04T02:59:58.470Z,75.80
2018-09-04T03:00:58.452Z,74.20
2018-09-04T03:01:58.461Z,75.10
2018-09-04T03:02:58.461Z,74.10
2018-09-04T03:03:58.467Z,75.80
2018-09-04T03:04:58.466Z,75.20
2018-09-04T03:05:58.480Z,76.80
2018-09-04T03:06:58.480Z,79.50
2018-09-04T03:07:58.550Z,78.00
2018-09-04T03:08:58.526Z,80.90
2018-09-04T03:09:58.483Z,83.00
2018-09-04T03:10:58.487Z,82.50
2018-09-04T03:11:58.478Z,82.70
2018-09-04T03:12:58.508Z,82.50
2018-09-04T03:13:58.625Z,81.70
2018-09-04T03:14:58.503Z,84.80
2018-09-04T03:15:58.522Z,82.60
2018-09-04T03:16:58.587Z,79.60
2018-09-04T03:17:58.510Z,80.50
2018-09-04T03:18:58.587Z,80.10
2018-09-04T03:19:58.522Z,78.50
2018-09-04T03:20:58.651Z,81.00
2018-09-04T03:21:58.527Z,83.00
2018-09-04T03:22:58.549Z,82.90
2018-09-04T03:23:58.536Z,79.60
2018-09-04T03:24:58.523Z,83.10
2018-09-04T03:25:58.526Z,80.80
2018-09-04T03:26:58.575Z,81.20
2018-09-04T03:27:58.532Z,84.80
2018-09-04T03:28:58.630Z,86.00
2018-09-04T03:29:58.543Z,82.70
2018-09-04T03:30:58.567Z,84.00
2018-09-04T03:31:58.535Z,83.30
2018-09-04T03:32:58.539Z,86.40
2018-09-04T03:33:58.550Z,87.00
2018-09-04T03:34:58.545Z,83.60
2018-09-04T03:35:58.646Z,85.50
2018-09-04T03:36:58.567Z,83.10
2018-09-04T03:37:58.558Z,81.90
2018-09-04T03:38:58.578Z,80.90
2018-09-04T03:39:58.601Z,83.50
2018-09-04T03:40:58.639Z,81.70
2018-09-04T03:41:58.584Z,84.00
2018-09-04T03:42:58.570Z,83.20
2018-09-04T03:43:58.597Z,83.60
2018-09-04T03:44:58.588Z,88.50
2018-09-04T03:45:58.600Z,88.00
2018-09-04T03:46:58.592Z,89.80
2018-09-04T03:47:58.592Z,92.20
2018-09-04T03:48:59.083Z,87.20
2018-09-04T03:49:58.622Z,90.50
2018-09-04T03:50:58.780Z,90.80
2018-09-04T03:51:58.589Z,90.00
2018-09-04T03:52:58.584Z,89.90
2018-09-04T03:53:58.588Z,87.80
2018-09-04T03:54:58.592Z,89.00
2018-09-04T03:55:58.617Z,90.40
2018-09-04T03:56:58.609Z,92.10
2018-09-04T03:57:58.617Z,91.70
2018-09-04T03:58:58.630Z,86.30
2018-09-04T03:59:58.658Z,88.30
2018-09-04T04:00:58.659Z,88.90
2018-09-04T04:01:58.691Z,87.60
2018-09-04T04:02:58.610Z,88.20
2018-09-04T04:03:58.641Z,91.40
2018-09-04T04:04:58.622Z,88.10
2018-09-04T04:05:58.645Z,92.20
2018-09-04T04:06:58.635Z,86.50
2018-09-04T04:07:58.633Z,90.10
2018-09-04T04:08:58.622Z,89.90
2018-09-04T04:09:58.635Z,93.40
2018-09-04T04:10:58.638Z,94.70
2018-09-04T04:11:58.706Z,92.00
2018-09-04T04:12:58.641Z,94.90
2018-09-04T04:13:58.650Z,94.70
2018-09-04T04:14:58.650Z,91.30
2018-09-04T04:15:58.678Z,94.50
2018-09-04T04:16:59.598Z,97.00
2018-09-04T04:17:58.662Z,93.20
2018-09-04T04:18:58.651Z,92.60
2018-09-04T04:19:58.690Z,94.60
2018-09-04T04:20:58.694Z,96.00
2018-09-04T04:21:58.670Z,97.10
2018-09-04T04:22:58.693Z,93.80
2018-09-04T04:23:58.771Z,92.00
2018-09-04T04:24:58.692Z,93.90
2018-09-04T04:25:58.690Z,96.00
2018-09-04T04:26:58.694Z,96.80
2018-09-04T04:27:58.680Z,95.30
2018-09-04T04:28:58.693Z,96.10
2018-09-04T04:29:58.780Z,95.50
2018-09-04T04:30:58.683Z,97.40
2018-09-04T04:31:58.693Z,93.40
2018-09-04T04:32:58.720Z,94.40
2018-09-04T04:33:58.728Z,95.10
2018-09-04T04:34:58.704Z,97.00
2018-09-04T04:35:58.712Z,96.90
2018-09-04T04:36:58.709Z,101.50
2018-09-04T04:37:58.715Z,101.40
2018-09-04T04:38:58.730Z,100.50
2018-09-04T04:39:58.731Z,99.80
2018-09-04T04:40:58.710Z,101.10
2018-09-04T04:41:58.750Z,97.20
2018-09-04T04:42:58.810Z,100.10
2018-09-04T04:43:58.745Z,100.90
2018-09-04T04:44:58.762Z,96.70
2018-09-04T04:45:58.753Z,98.30
2018-09-04T04:46:58.729Z,94.40
2018-09-04T04:47:58.791Z,93.70
2018-09-04T04:48:58.741Z,96.30
2018-09-04T04:49:58.772Z,100.10
2018-09-04T04:50:58.746Z,101.20
2018-09-04T04:51:58.735Z,103.70
2018-09-04T04:52:58.744Z,104.80
2018-09-04T04:53:58.742Z,102.60
2018-09-04T04:54:58.738Z,102.40
2018-09-04T04:55:58.740Z,104.30
2018-09-04T04:56:58.798Z,101.40
2018-09-04T04:57:58.751Z,103.00
2018-09-04T04:58:58.789Z,103.00
2018-09-04T04:59:58.748Z,104.10
2018-09-04T05:00:58.777Z,101.20
2018-09-04T05:01:58.758Z,101.30
2018-09-04T05:02:58.784Z,98.00
2018-09-04T05:03:58.757Z,99.10
2018-09-04T05:04:58.772Z,96.50
2018-09-04T05:05:58.781Z,99.30
2018-09-04T05:06:58.778Z,102.70
2018-09-04T05:07:58.773Z,101.00
2018-09-04T05:08:58.791Z,100.70
2018-09-04T05:09:58.786Z,100.80
2018-09-04T05:10:58.813Z,106.50
2018-09-04T05:11:58.856Z,105.10
2018-09-04T05:12:58.833Z,100.60
2018-09-04T05:13:58.863Z,99.40
2018-09-04T05:14:58.832Z,99.30
2018-09-04T05:15:58.797Z,96.70
2018-09-04T05:16:58.793Z,96.00
2018-09-04T05:17:58.826Z,98.60
2018-09-04T05:18:58.840Z,99.20
2018-09-04T05:19:58.800Z,102.90
2018-09-04T05:20:58.810Z,102.90
2018-09-04T05:21:58.813Z,101.60
2018-09-04T05:22:58.806Z,100.20
2018-09-04T05:23:58.927Z,102.00
2018-09-04T05:24:58.836Z,98.40
2018-09-04T05:25:58.828Z,96.30
2018-09-04T05:26:58.828Z,94.50
2018-09-04T05:27:58.871Z,97.30
2018-09-04T05:28:58.855Z,98.60
2018-09-04T05:29:58.846Z,98.30
2018-09-04T05:30:58.838Z,97.80
2018-09-04T05:31:58.847Z,100.60
2018-09-04T05:32:58.841Z,99.90
2018-09-04T05:33:58.861Z,101.10
2018-09-04T05:34:58.851Z,98.40
2018-09-04T05:35:58.865Z,99.70
2018-09-04T05:36:58.882Z,98.80
2018-09-04T05:37:58.858Z,95.90
2018-09-04T05:38:58.851Z,96.70
2018-09-04T05:39:59.626Z,97.10
2018-09-04T05:40:58.873Z,97.80
2018-09-04T05:41:58.933Z,98.10
2018-09-04T05:42:58.877Z,96.60
2018-09-04T05:43:58.880Z,99.30
2018-09-04T05:44:58.896Z,96.80
2018-09-04T05:45:58.900Z,98.00
2018-09-04T05:46:58.882Z,100.10
2018-09-04T05:47:59.013Z,96.70
2018-09-04T05:48:58.904Z,95.80
2018-09-04T05:49:59.168Z,95.20
2018-09-04T05:50:58.925Z,94.50
2018-09-04T05:51:58.902Z,95.70
2018-09-04T05:52:58.905Z,93.90
2018-09-04T05:53:58.938Z,95.80
2018-09-04T05:54:59.062Z,94.30
2018-09-04T05:55:58.896Z,96.00
2018-09-04T05:56:58.902Z,96.20
2018-09-04T05:57:58.980Z,95.40
2018-09-04T05:58:59.006Z,93.30
2018-09-04T05:59:58.927Z,93.30
2018-09-04T06:00:58.922Z,92.60
2018-09-04T06:01:58.922Z,93.40
2018-09-04T06:02:58.933Z,98.30
2018-09-04T06:03:58.942Z,96.30
2018-09-04T06:04:58.983Z,92.50
2018-09-04T06:05:58.929Z,95.40
2018-09-04T06:06:58.924Z,96.70
2018-09-04T06:07:58.980Z,97.40
2018-09-04T06:08:58.936Z,95.50
2018-09-04T06:09:58.946Z,95.40
2018-09-04T06:10:59.041Z,94.10
2018-09-04T06:11:58.978Z,91.10
2018-09-04T06:12:58.978Z,90.90
2018-09-04T06:13:58.961Z,89.40
2018-09-04T06:14:58.952Z,90.40
2018-09-04T06:15:58.951Z,85.10
2018-09-04T06:16:58.976Z,83.40
2018-09-04T06:17:58.983Z,82.60
2018-09-04T06:18:59.012Z,83.40
2018-09-04T06:19:59.024Z,81.90
2018-09-04T06:20:59.057Z,81.80
2018-09-04T06:21:58.980Z,79.80
2018-09-04T06:22:58.971Z,81.80
2018-09-04T06:23:59.009Z,82.80
2018-09-04T06:24:58.980Z,83.50
2018-09-04T06:25:58.978Z,79.10
2018-09-04T06:26:58.994Z,82.00
2018-09-04T06:27:58.984Z,82.70
2018-09-04T06:28:59.005Z,81.30
2018-09-04T06:29:58.987Z,80.60
2018-09-04T06:30:59.131Z,80.10
2018-09-04T06:31:59.032Z,83.90
2018-09-04T06:32:59.016Z,82.00
2018-09-04T06:33:59.068Z,81.00
2018-09-04T06:34:59.008Z,79.30
2018-09-04T06:35:59.061Z,78.70
2018-09-04T06:36:59.025Z,79.60
2018-09-04T06:37:59.006Z,76.20
2018-09-04T06:38:59.086Z,73.90
2018-09-04T06:39:59.046Z,74.00
2018-09-04T06:40:59.653Z,73.90
2018-09-04T06:41:59.042Z,73.20
2018-09-04T06:42:59.159Z,69.60
2018-09-04T06:43:59.024Z,66.90
2018-09-04T06:44:59.099Z,73.70
2018-09-04T06:45:59.038Z,73.90
2018-09-04T06:46:59.038Z,72.50
2018-09-04T06:47:59.100Z,73.20
2018-09-04T06:48:59.039Z,71.80
2018-09-04T06:49:59.066Z,71.00
2018-09-04T06:50:59.054Z,73.20
2018-09-04T06:51:59.052Z,71.00
2018-09-04T06:52:59.086Z,71.30
2018-09-04T06:53:59.092Z,70.70
2018-09-04T06:54:59.070Z,71.30
2018-09-04T06:55:59.055Z,68.70
2018-09-04T06:56:59.079Z,69.70
2018-09-04T06:57:59.199Z,73.80
2018-09-04T06:58:59.159Z,71.30
2018-09-04T06:59:59.104Z,72.40
2018-09-04T07:00:59.114Z,71.00
2018-09-04T07:01:59.220Z,72.20
2018-09-04T07:02:59.099Z,73.30
2018-09-04T07:03:59.095Z,73.00
2018-09-04T07:04:59.106Z,527.80
2018-09-04T07:05:59.341Z,144.30
2018-09-04T07:06:59.212Z,84.20
2018-09-04T07:07:59.165Z,74.30
2018-09-04T07:08:59.099Z,72.30
2018-09-04T07:09:59.180Z,69.00
2018-09-04T07:10:59.155Z,69.60
2018-09-04T07:11:59.569Z,68.20
2018-09-04T07:12:59.138Z,69.40
2018-09-04T07:13:59.126Z,69.00
2018-09-04T07:14:59.239Z,68.00
2018-09-04T07:15:59.140Z,69.30
2018-09-04T07:16:59.214Z,68.40
2018-09-04T07:17:59.176Z,68.40
2018-09-04T07:18:59.131Z,69.80
2018-09-04T07:19:59.138Z,67.20
2018-09-04T07:20:59.187Z,69.40
2018-09-04T07:21:59.194Z,72.70
2018-09-04T07:22:59.267Z,71.50
2018-09-04T07:23:59.206Z,71.20
2018-09-04T07:24:59.142Z,68.00
2018-09-04T07:25:59.215Z,70.00
2018-09-04T07:26:59.191Z,70.20
2018-09-04T07:27:59.223Z,70.70
2018-09-04T07:28:59.188Z,67.60
2018-09-04T07:29:59.170Z,67.90
2018-09-04T07:30:59.164Z,68.70
2018-09-04T07:31:59.182Z,67.60
2018-09-04T07:32:59.673Z,68.20
2018-09-04T07:33:59.197Z,67.40
2018-09-04T07:34:59.183Z,67.60
2018-09-04T07:35:59.285Z,70.40
2018-09-04T07:36:59.231Z,66.20
2018-09-04T07:39:02.416Z,67.50
2018-09-04T07:40:00.244Z,69.80
2018-09-04T07:40:59.207Z,70.90
2018-09-04T07:41:59.368Z,72.60
2018-09-04T07:42:59.384Z,73.60
2018-09-04T07:43:59.234Z,68.40
2018-09-04T07:44:59.241Z,68.20
2018-09-04T07:45:59.243Z,70.30
2018-09-04T07:46:59.273Z,71.90
2018-09-04T07:47:59.219Z,65.20
2018-09-04T07:48:59.350Z,69.90
2018-09-04T07:49:59.806Z,65.30
2018-09-04T07:53:04.183Z,71.10
2018-09-04T07:53:59.326Z,71.90
2018-09-04T07:54:59.313Z,65.30
2018-09-04T07:56:00.189Z,68.10
2018-09-04T07:56:59.243Z,67.50
2018-09-04T07:57:59.253Z,69.60
2018-09-04T07:58:59.295Z,71.40
2018-09-04T07:59:59.273Z,71.20
2018-09-04T08:00:59.311Z,72.30
2018-09-04T08:01:59.278Z,72.80
2018-09-04T08:02:59.317Z,72.30
2018-09-04T08:03:59.356Z,74.10
2018-09-04T08:04:59.281Z,71.60
2018-09-04T08:05:59.333Z,70.40
2018-09-04T08:06:59.298Z,72.70
2018-09-04T08:07:59.352Z,71.00
2018-09-04T08:09:00.196Z,70.10
2018-09-04T08:09:59.433Z,70.20
2018-09-04T08:10:59.312Z,71.60
2018-09-04T08:11:59.307Z,70.10
2018-09-04T08:12:59.310Z,68.70
2018-09-04T08:13:59.349Z,67.50
2018-09-04T08:14:59.353Z,66.00
2018-09-04T08:15:59.308Z,64.60
2018-09-04T08:17:00.200Z,68.70
2018-09-04T08:17:59.386Z,66.10
2018-09-04T08:18:59.471Z,69.50
2018-09-04T08:19:59.368Z,68.40
2018-09-04T08:20:59.429Z,66.60
2018-09-04T08:21:59.325Z,65.50
2018-09-04T08:22:59.338Z,62.80
2018-09-04T08:23:59.366Z,68.20
2018-09-04T08:24:59.402Z,67.60
2018-09-04T08:25:59.416Z,64.50
2018-09-04T08:26:59.470Z,64.70
2018-09-04T08:27:59.364Z,62.70
2018-09-04T08:28:59.345Z,65.60
2018-09-04T08:29:59.446Z,63.50
2018-09-04T08:30:59.422Z,66.70
2018-09-04T08:32:00.305Z,66.20
2018-09-04T08:32:59.501Z,66.00
2018-09-04T08:33:59.475Z,63.30
2018-09-04T08:34:59.395Z,64.10
2018-09-04T08:35:59.437Z,64.70
2018-09-04T08:36:59.436Z,65.20
2018-09-04T08:37:59.542Z,65.40
2018-09-04T08:38:59.420Z,63.80
2018-09-04T08:39:59.447Z,65.30
2018-09-04T08:40:59.444Z,63.40
2018-09-04T08:41:59.540Z,62.90
2018-09-04T08:42:59.618Z,66.20
2018-09-04T08:43:59.514Z,63.80
2018-09-04T08:44:59.507Z,61.70
2018-09-04T08:46:00.861Z,64.80
2018-09-04T08:46:59.493Z,63.70
2018-09-04T08:47:59.426Z,62.10
2018-09-04T08:48:59.480Z,62.10
2018-09-04T08:49:59.434Z,60.40
2018-09-04T08:50:59.663Z,58.90
2018-09-04T08:51:59.557Z,59.80
2018-09-04T08:52:59.585Z,62.20
2018-09-04T08:53:59.505Z,59.10
2018-09-04T08:54:59.541Z,58.90
2018-09-04T08:55:59.624Z,57.00
2018-09-04T08:56:59.481Z,54.50
2018-09-04T08:57:59.746Z,54.90
2018-09-04T08:59:00.459Z,51.60
2018-09-04T08:59:59.570Z,50.40
2018-09-04T09:00:59.661Z,52.50
2018-09-04T09:01:59.654Z,52.90
2018-09-04T09:02:59.552Z,51.00
2018-09-04T09:03:59.624Z,48.00
2018-09-04T09:05:00.329Z,48.60
2018-09-04T09:05:59.575Z,49.00
2018-09-04T09:06:59.869Z,49.90
2018-09-04T09:07:59.548Z,46.10
2018-09-04T09:09:02.801Z,49.40
2018-09-04T09:09:59.803Z,49.70
2018-09-04T09:11:07.232Z,48.70
2018-09-04T09:12:00.789Z,47.70
2018-09-04T09:12:59.701Z,48.10
2018-09-04T09:13:59.759Z,49.00
2018-09-04T09:14:59.626Z,49.90
2018-09-04T09:15:59.669Z,48.80
2018-09-04T09:16:59.669Z,49.60
2018-09-04T09:17:59.666Z,50.80
2018-09-04T09:18:59.708Z,49.40
2018-09-04T09:20:00.235Z,49.50
2018-09-04T09:20:59.731Z,49.80
2018-09-04T09:21:59.670Z,52.20
2018-09-04T09:22:59.875Z,50.90
2018-09-04T09:24:59.993Z,48.50
2018-09-04T09:25:59.678Z,49.10
2018-09-04T09:27:00.340Z,48.40
2018-09-04T09:27:59.780Z,46.60
2018-09-04T09:28:59.758Z,45.90
2018-09-04T09:29:59.785Z,48.30
2018-09-04T09:30:59.771Z,47.10
2018-09-04T09:31:59.929Z,46.10
2018-09-04T09:32:59.834Z,45.70
2018-09-04T09:33:59.845Z,45.60
2018-09-04T09:34:59.787Z,43.70
2018-09-04T09:35:59.784Z,46.90
2018-09-04T09:36:59.968Z,44.70
2018-09-04T09:37:59.841Z,44.70
2018-09-04T09:38:59.849Z,44.10
2018-09-04T09:39:59.873Z,45.90
2018-09-04T09:40:59.897Z,46.20
2018-09-04T09:42:00.036Z,44.70
2018-09-04T09:42:59.865Z,43.00
2018-09-04T09:43:59.904Z,43.60
2018-09-04T09:44:59.882Z,43.90
2018-09-04T09:46:01.038Z,44.20
2018-09-04T09:46:59.876Z,44.10
2018-09-04T09:47:59.903Z,44.80
2018-09-04T09:48:59.963Z,44.40
2018-09-04T09:49:59.957Z,46.10
2018-09-04T09:51:00.043Z,45.00
2018-09-04T09:51:59.960Z,45.10
2018-09-04T09:53:00.013Z,45.70
2018-09-04T09:54:00.001Z,43.10
2018-09-04T09:55:00.027Z,45.20
2018-09-04T09:56:00.002Z,46.90
2018-09-04T09:56:59.982Z,44.80
2018-09-04T09:58:00.103Z,44.10
2018-09-04T09:59:00.042Z,45.50
2018-09-04T10:00:00.198Z,45.30
2018-09-04T10:01:00.303Z,45.50
2018-09-04T10:02:00.134Z,42.90
2018-09-04T10:03:00.070Z,48.00
2018-09-04T10:04:00.044Z,44.80
2018-09-04T10:05:00.140Z,43.40
2018-09-04T10:06:00.062Z,41.50
2018-09-04T10:07:00.077Z,42.10
2018-09-04T10:08:00.194Z,46.10
2018-09-04T10:09:00.177Z,49.50
2018-09-04T10:10:00.116Z,45.50
2018-09-04T10:11:00.109Z,45.70
2018-09-04T10:12:00.144Z,47.00
2018-09-04T10:13:00.908Z,47.30
2018-09-04T10:14:00.146Z,48.40
2018-09-04T10:15:00.154Z,48.60
2018-09-04T10:16:00.166Z,46.80
2018-09-04T10:17:00.135Z,47.60
2018-09-04T10:18:00.169Z,47.00
2018-09-04T10:19:00.189Z,45.80
2018-09-04T10:20:00.238Z,45.20
2018-09-04T10:21:00.154Z,46.30
2018-09-04T10:22:00.184Z,44.30
2018-09-04T10:23:10.335Z,44.60
2018-09-04T10:24:01.069Z,43.60
2018-09-04T10:25:00.222Z,43.60
2018-09-04T10:26:00.252Z,45.10
2018-09-04T10:27:00.256Z,44.60
2018-09-04T10:28:00.286Z,42.80
2018-09-04T10:29:00.311Z,42.70
2018-09-04T10:30:00.232Z,44.70
2018-09-04T10:31:00.266Z,41.50
2018-09-04T10:32:00.288Z,38.90
2018-09-04T10:33:00.334Z,39.10
2018-09-04T10:34:00.310Z,43.20
2018-09-04T10:35:00.315Z,41.60
2018-09-04T10:36:00.973Z,40.40
2018-09-04T10:37:00.336Z,39.80
2018-09-04T10:38:00.314Z,40.40
2018-09-04T10:39:00.425Z,38.10
2018-09-04T10:40:00.356Z,38.70
2018-09-04T10:41:00.397Z,37.60
2018-09-04T10:42:00.523Z,40.90
2018-09-04T10:43:00.400Z,41.90
2018-09-04T10:44:00.421Z,41.70
2018-09-04T10:45:00.428Z,41.60
2018-09-04T10:46:01.149Z,42.60
2018-09-04T10:47:02.456Z,40.90
2018-09-04T10:49:36.775Z,36.60
2018-09-04T10:50:34.678Z,36.50
2018-09-04T10:51:34.746Z,37.60
2018-09-04T10:52:35.062Z,38.00
2018-09-04T10:53:34.679Z,38.50
2018-09-04T10:54:35.517Z,37.10
2018-09-04T10:55:34.819Z,37.40
2018-09-04T10:56:36.890Z,38.30
2018-09-04T10:57:34.858Z,37.20
2018-09-04T10:58:34.797Z,37.00
2018-09-04T10:59:34.802Z,36.30
2018-09-04T11:00:35.026Z,34.90
2018-09-04T11:01:34.876Z,36.30
2018-09-04T11:02:34.928Z,43.20
2018-09-04T11:03:34.977Z,32.00
2018-09-04T11:06:08.966Z,32.00
2018-09-04T11:07:09.382Z,32.30
2018-09-04T11:08:08.961Z,32.10
2018-09-04T11:09:08.181Z,34.80
2018-09-04T11:10:08.201Z,34.20
2018-09-04T11:11:08.097Z,32.70
2018-09-04T11:12:09.084Z,32.10
2018-09-04T11:13:09.355Z,34.90
2018-09-04T11:14:08.064Z,36.90
2018-09-04T11:15:08.096Z,36.60
2018-09-04T11:16:08.091Z,35.80
2018-09-04T11:17:08.135Z,34.00
2018-09-04T11:18:08.164Z,33.10
2018-09-04T11:19:08.147Z,30.70
2018-09-04T11:20:08.241Z,29.90
2018-09-04T11:21:08.210Z,29.20
2018-09-04T11:22:08.270Z,30.30
2018-09-04T11:23:08.184Z,32.10
2018-09-04T11:24:08.187Z,29.70
2018-09-04T11:25:08.202Z,29.60
2018-09-04T11:26:08.206Z,30.50
2018-09-04T11:27:08.263Z,27.90
2018-09-04T11:28:08.317Z,28.00
2018-09-04T11:29:08.299Z,27.40
2018-09-04T11:30:08.414Z,27.60
2018-09-04T11:31:08.274Z,29.40
2018-09-04T11:32:08.347Z,26.80
2018-09-04T11:33:08.354Z,29.70
2018-09-04T11:34:08.299Z,32.60
2018-09-04T11:35:08.305Z,32.00
2018-09-04T11:36:08.330Z,31.20
2018-09-04T11:37:08.387Z,30.30
2018-09-04T11:38:08.362Z,30.70
2018-09-04T11:39:08.436Z,30.10
2018-09-04T11:40:08.426Z,30.30
2018-09-04T11:41:08.384Z,31.50
2018-09-04T11:42:08.460Z,33.60
2018-09-04T11:43:08.401Z,32.40
2018-09-04T11:44:08.430Z,31.90
2018-09-04T11:45:32.937Z,30.80
2018-09-04T11:46:10.433Z,31.30
2018-09-04T11:48:34.722Z,29.90
2018-09-04T22:00:58.171Z,24.30
2018-09-04T22:01:58.185Z,26.80
2018-09-04T22:02:58.115Z,26.60
2018-09-04T22:03:58.121Z,27.50
2018-09-04T22:04:58.128Z,27.70
2018-09-04T22:05:58.134Z,27.90
2018-09-04T22:06:58.126Z,33.70
2018-09-04T22:07:58.143Z,48.50
2018-09-04T22:08:58.142Z,33.40
2018-09-04T22:09:58.145Z,31.90
2018-09-04T22:10:58.150Z,30.90
2018-09-04T22:11:58.153Z,30.50
2018-09-04T22:12:58.138Z,28.70
2018-09-04T22:13:58.145Z,28.70
2018-09-04T22:14:58.152Z,28.30
2018-09-04T22:15:58.176Z,27.90
2018-09-04T22:16:58.168Z,28.50
2018-09-04T22:17:58.156Z,28.40
2018-09-04T22:18:58.172Z,28.30
2018-09-04T22:19:58.225Z,27.90
2018-09-04T22:20:58.168Z,28.40
2018-09-04T22:21:58.189Z,29.50
2018-09-04T22:22:58.187Z,28.30
2018-09-04T22:23:58.180Z,29.10
2018-09-04T22:24:58.197Z,29.50
2018-09-04T22:25:58.179Z,29.30
2018-09-04T22:26:58.189Z,29.90
2018-09-04T22:27:58.215Z,29.40
2018-09-04T22:28:58.187Z,28.90
2018-09-04T22:29:58.194Z,28.00
2018-09-04T22:30:58.195Z,29.20
2018-09-04T22:31:58.203Z,29.20
2018-09-04T22:32:58.287Z,29.90
2018-09-04T22:33:58.207Z,29.70
2018-09-04T22:34:58.210Z,30.00
2018-09-04T22:35:58.253Z,30.00
2018-09-04T22:36:58.213Z,31.10
2018-09-04T22:37:58.262Z,30.40
2018-09-04T22:38:58.237Z,31.40
2018-09-04T22:39:58.262Z,31.00
2018-09-04T22:40:58.297Z,30.90
2018-09-04T22:41:58.257Z,30.50
2018-09-04T22:42:58.354Z,31.40
2018-09-04T22:43:58.266Z,31.60
2018-09-04T22:44:58.255Z,31.20
2018-09-04T22:45:58.240Z,31.70
2018-09-04T22:46:58.239Z,30.10
2018-09-04T22:47:58.257Z,30.90
2018-09-04T22:48:58.252Z,31.00
2018-09-04T22:49:58.262Z,29.60
2018-09-04T22:50:58.248Z,29.80
2018-09-04T22:51:58.293Z,31.60
2018-09-04T22:52:58.261Z,30.40
2018-09-04T22:53:58.254Z,30.70
2018-09-04T22:54:58.246Z,30.50
2018-09-04T22:55:58.396Z,31.50
2018-09-04T22:56:58.267Z,29.90
2018-09-04T22:57:58.290Z,30.30
2018-09-04T22:58:58.264Z,29.10
2018-09-04T22:59:58.286Z,29.20
2018-09-04T23:00:58.288Z,28.90
2018-09-04T23:01:58.268Z,28.70
2018-09-04T23:02:58.269Z,29.60
2018-09-04T23:03:58.274Z,29.20
2018-09-04T23:04:58.307Z,28.70
2018-09-04T23:05:58.293Z,29.80
2018-09-04T23:06:58.292Z,29.90
2018-09-04T23:07:58.323Z,29.40
2018-09-04T23:08:58.287Z,30.10
2018-09-04T23:09:58.284Z,28.30
2018-09-04T23:10:58.291Z,28.60
2018-09-04T23:11:58.314Z,28.50